createdAt,value
2023-02-07T00:01:33.288Z,101908.47
2023-02-07T00:04:03.229Z,101911.94
2023-02-07T00:06:32.498Z,101912.78
2023-02-07T00:09:04.825Z,101915.53
2023-02-07T00:11:32.168Z,101927.00
2023-02-07T00:13:59.888Z,101927.84
2023-02-07T00:16:28.536Z,101919.91
2023-02-07T00:18:59.045Z,101922.34
2023-02-07T00:21:28.251Z,101914.13
2023-02-07T00:23:56.110Z,101917.78
2023-02-07T00:26:26.422Z,101907.03
2023-02-07T00:28:55.178Z,101910.66
2023-02-07T00:31:26.650Z,101918.22
2023-02-07T00:33:56.369Z,101923.59
2023-02-07T00:36:26.339Z,101922.94
2023-02-07T00:38:56.531Z,101914.13
2023-02-07T00:41:25.888Z,101913.25
2023-02-07T00:43:54.379Z,101913.56
2023-02-07T00:46:24.372Z,101919.94
2023-02-07T00:48:54.689Z,101927.38
2023-02-07T00:51:22.160Z,101923.81
2023-02-07T00:53:51.376Z,101924.06
2023-02-07T00:56:21.728Z,101922.59
2023-02-07T00:58:51.072Z,101912.88
2023-02-07T01:01:18.959Z,101907.59
2023-02-07T01:03:46.635Z,101910.34
2023-02-07T01:06:14.375Z,101919.41
2023-02-07T01:08:41.717Z,101918.78
2023-02-07T01:11:11.441Z,101924.50
2023-02-07T01:13:39.427Z,101926.50
2023-02-07T01:16:08.287Z,101928.53
2023-02-07T01:18:35.564Z,101928.16
2023-02-07T01:21:13.109Z,101929.56
2023-02-07T01:23:40.408Z,101934.88
2023-02-07T01:26:08.432Z,101930.41
2023-02-07T01:28:35.808Z,101934.28
2023-02-07T01:31:09.110Z,101923.00
2023-02-07T01:33:38.376Z,101930.19
2023-02-07T01:36:07.263Z,101929.47
2023-02-07T01:38:34.539Z,101926.78
2023-02-07T01:41:01.927Z,101922.53
2023-02-07T01:43:29.403Z,101927.13
2023-02-07T01:45:56.710Z,101920.06
2023-02-07T01:48:31.937Z,101918.00
2023-02-07T01:51:04.652Z,101917.84
2023-02-07T01:53:35.085Z,101910.00
2023-02-07T01:56:05.266Z,101906.59
2023-02-07T01:58:33.611Z,101917.44
2023-02-07T02:01:04.200Z,101910.53
2023-02-07T02:03:34.963Z,101907.28
2023-02-07T02:06:02.830Z,101905.69
2023-02-07T02:08:30.147Z,101909.47
2023-02-07T02:11:10.216Z,101906.97
2023-02-07T02:13:45.007Z,101913.34
2023-02-07T02:16:20.492Z,101911.66
2023-02-07T02:19:03.498Z,101907.94
2023-02-07T02:21:58.694Z,101905.22
2023-02-07T02:25:07.136Z,101906.97
2023-02-07T02:28:02.064Z,101902.69
2023-02-07T02:30:41.400Z,101908.13
2023-02-07T02:33:33.810Z,101906.25
2023-02-07T02:36:16.491Z,101914.50
2023-02-07T02:38:51.590Z,101915.41
2023-02-07T02:41:27.270Z,101916.44
2023-02-07T02:44:01.734Z,101920.22
2023-02-07T02:46:34.384Z,101908.28
2023-02-07T02:49:08.124Z,101920.53
2023-02-07T02:51:38.194Z,101911.63
2023-02-07T02:54:27.805Z,101906.66
2023-02-07T02:57:31.186Z,101907.44
2023-02-07T03:00:27.011Z,101896.72
2023-02-07T03:03:11.255Z,101898.72
2023-02-07T03:05:52.837Z,101888.97
2023-02-07T03:08:30.869Z,101884.66
2023-02-07T03:11:07.625Z,101882.19
2023-02-07T03:13:49.351Z,101873.25
2023-02-07T03:16:22.208Z,101859.13
2023-02-07T03:18:57.066Z,101873.56
2023-02-07T03:21:30.330Z,101880.69
2023-02-07T03:24:01.360Z,101872.72
2023-02-07T03:26:30.718Z,101881.78
2023-02-07T03:28:59.706Z,101870.38
2023-02-07T03:31:29.154Z,101870.66
2023-02-07T03:34:03.082Z,101871.50
2023-02-07T03:36:38.634Z,101873.69
2023-02-07T03:39:05.934Z,101876.41
2023-02-07T03:41:40.203Z,101872.63
2023-02-07T03:44:09.679Z,101871.69
2023-02-07T03:46:38.325Z,101883.25
2023-02-07T03:49:06.551Z,101879.25
2023-02-07T03:51:35.910Z,101879.38
2023-02-07T03:54:03.480Z,101893.69
2023-02-07T03:56:30.867Z,101889.34
2023-02-07T03:58:58.189Z,101886.78
2023-02-07T04:01:25.552Z,101880.56
2023-02-07T04:03:52.851Z,101884.34
2023-02-07T04:06:20.607Z,101886.25
2023-02-07T04:08:49.400Z,101880.09
2023-02-07T04:11:16.645Z,101885.25
2023-02-07T04:13:43.915Z,101889.69
2023-02-07T04:16:11.384Z,101882.63
2023-02-07T04:18:38.728Z,101887.94
2023-02-07T04:21:07.915Z,101891.56
2023-02-07T04:23:35.923Z,101900.59
2023-02-07T04:26:04.969Z,101896.44
2023-02-07T04:28:32.368Z,101900.03
2023-02-07T04:30:59.663Z,101897.34
2023-02-07T04:33:27.073Z,101885.94
2023-02-07T04:35:55.727Z,101895.81
2023-02-07T04:38:23.235Z,101900.47
2023-02-07T04:40:50.480Z,101895.13
2023-02-07T04:43:19.415Z,101906.63
2023-02-07T04:45:48.640Z,101897.72
2023-02-07T04:48:15.991Z,101894.16
2023-02-07T04:50:43.799Z,101886.97
2023-02-07T04:53:13.593Z,101890.53
2023-02-07T04:55:41.066Z,101898.50
2023-02-07T04:58:08.413Z,101899.31
2023-02-07T05:00:37.253Z,101904.47
2023-02-07T05:03:04.623Z,101913.28
2023-02-07T05:05:32.051Z,101914.00
2023-02-07T05:07:59.444Z,101911.31
2023-02-07T05:10:26.700Z,101906.16
2023-02-07T05:12:54.022Z,101903.47
2023-02-07T05:15:21.394Z,101906.16
2023-02-07T05:17:50.174Z,101908.88
2023-02-07T05:20:17.658Z,101915.94
2023-02-07T05:22:44.981Z,101917.94
2023-02-07T05:25:12.433Z,101915.53
2023-02-07T05:27:39.690Z,101913.81
2023-02-07T05:30:08.134Z,101907.94
2023-02-07T05:32:38.174Z,101907.91
2023-02-07T05:35:07.423Z,101910.88
2023-02-07T05:37:34.778Z,101908.28
2023-02-07T05:40:02.385Z,101897.66
2023-02-07T05:42:30.022Z,101907.44
2023-02-07T05:44:57.427Z,101907.47
2023-02-07T05:47:24.895Z,101905.75
2023-02-07T05:49:52.482Z,101904.97
2023-02-07T05:52:21.366Z,101904.13
2023-02-07T05:54:50.510Z,101901.63
2023-02-07T05:57:20.309Z,101899.91
2023-02-07T05:59:49.151Z,101910.78
2023-02-07T06:02:16.622Z,101913.53
2023-02-07T06:04:44.430Z,101918.00
2023-02-07T06:07:11.884Z,101913.53
2023-02-07T06:09:41.850Z,101925.91
2023-02-07T06:12:09.205Z,101923.34
2023-02-07T06:14:36.760Z,101926.94
2023-02-07T06:17:04.232Z,101938.50
2023-02-07T06:19:31.713Z,101935.94
2023-02-07T06:22:02.054Z,101934.00
2023-02-07T06:24:29.582Z,101943.81
2023-02-07T06:27:01.839Z,101944.59
2023-02-07T06:29:31.065Z,101943.78
2023-02-07T06:31:58.486Z,101958.72
2023-02-07T06:34:26.204Z,101962.97
2023-02-07T06:36:53.973Z,101956.75
2023-02-07T06:39:25.477Z,101971.84
2023-02-07T06:41:54.910Z,101970.00
2023-02-07T06:44:27.332Z,101967.16
2023-02-07T06:46:54.764Z,101976.88
2023-02-07T06:49:22.201Z,101986.75
2023-02-07T06:51:52.034Z,101993.78
2023-02-07T06:54:19.600Z,101994.72
2023-02-07T06:56:46.997Z,101986.69
2023-02-07T06:59:14.630Z,101986.53
2023-02-07T07:01:43.669Z,101990.16
2023-02-07T07:04:13.447Z,101995.53
2023-02-07T07:06:43.536Z,102003.59
2023-02-07T07:09:10.872Z,102005.25
2023-02-07T07:11:38.329Z,102009.53
2023-02-07T07:14:05.758Z,102010.28
2023-02-07T07:16:33.065Z,102007.56
2023-02-07T07:19:02.070Z,102018.94
2023-02-07T07:21:29.685Z,102019.69
2023-02-07T07:23:57.129Z,102014.13
2023-02-07T07:26:24.608Z,102008.66
2023-02-07T07:28:52.153Z,102023.63
2023-02-07T07:31:19.546Z,102026.19
2023-02-07T07:33:46.959Z,102028.78
2023-02-07T07:36:15.617Z,102021.44
2023-02-07T07:38:46.001Z,102029.31
2023-02-07T07:41:16.910Z,102029.25
2023-02-07T07:43:44.417Z,102030.72
2023-02-07T07:46:11.784Z,102034.03
2023-02-07T07:48:41.096Z,102043.81
2023-02-07T07:51:08.391Z,102047.34
2023-02-07T07:53:39.034Z,102043.69
2023-02-07T07:56:09.554Z,102041.53
2023-02-07T07:58:46.230Z,102047.47
2023-02-07T08:01:13.820Z,102045.28
2023-02-07T08:03:41.376Z,102048.66
2023-02-07T08:06:08.785Z,102043.88
2023-02-07T08:08:37.771Z,102037.25
2023-02-07T08:11:07.130Z,102039.13
2023-02-07T08:13:37.848Z,102031.06
2023-02-07T08:16:07.398Z,102041.81
2023-02-07T08:18:37.386Z,102036.22
2023-02-07T08:21:05.126Z,102038.47
2023-02-07T08:23:33.210Z,102031.97
2023-02-07T08:26:04.135Z,102042.34
2023-02-07T08:28:32.666Z,102044.59
2023-02-07T08:31:00.776Z,102048.09
2023-02-07T08:33:30.337Z,102046.91
2023-02-07T08:35:58.106Z,102058.94
2023-02-07T08:38:25.541Z,102059.75
2023-02-07T08:40:52.983Z,102047.59
2023-02-07T08:43:21.822Z,102057.97
2023-02-07T08:45:49.416Z,102061.31
2023-02-07T08:48:16.830Z,102061.31
2023-02-07T08:50:44.282Z,102052.34
2023-02-07T08:53:12.157Z,102049.94
2023-02-07T08:55:40.608Z,102053.28
2023-02-07T08:58:12.554Z,102055.69
2023-02-07T09:00:41.790Z,102059.47
2023-02-07T09:03:09.614Z,102060.28
2023-02-07T09:05:38.240Z,102059.00
2023-02-07T09:08:05.581Z,102056.78
2023-02-07T09:10:34.926Z,102056.69
2023-02-07T09:13:02.428Z,102051.88
2023-02-07T09:15:30.175Z,102047.84
2023-02-07T09:18:08.119Z,102050.34
2023-02-07T09:20:38.880Z,102050.25
2023-02-07T09:23:06.782Z,102050.78
2023-02-07T09:25:34.118Z,102047.03
2023-02-07T09:28:01.570Z,102047.91
2023-02-07T09:30:28.952Z,102056.59
2023-02-07T09:32:57.434Z,102052.69
2023-02-07T09:35:27.560Z,102053.44
2023-02-07T09:37:55.422Z,102053.34
2023-02-07T09:40:23.171Z,102052.28
2023-02-07T09:42:56.967Z,102048.97
2023-02-07T09:45:32.126Z,102047.50
2023-02-07T09:48:04.318Z,102049.50
2023-02-07T09:50:39.056Z,102040.25
2023-02-07T09:53:16.907Z,102031.38
2023-02-07T09:55:49.218Z,102042.47
2023-02-07T09:58:21.084Z,102044.75
2023-02-07T10:00:59.352Z,102047.38
2023-02-07T10:03:27.079Z,102050.38
2023-02-07T10:06:09.269Z,102041.38
2023-02-07T10:08:47.129Z,102040.94
2023-02-07T10:11:23.818Z,102042.84
2023-02-07T10:14:07.291Z,102040.63
2023-02-07T10:16:52.762Z,102031.25
2023-02-07T10:19:29.672Z,102032.88
2023-02-07T10:22:13.196Z,102037.78
2023-02-07T10:24:55.597Z,102041.88
2023-02-07T10:27:30.830Z,102034.00
2023-02-07T10:30:11.720Z,102036.41
2023-02-07T10:32:39.801Z,102031.69
2023-02-07T10:35:16.383Z,102029.78
2023-02-07T10:37:47.040Z,102026.81
2023-02-07T10:40:22.912Z,102037.28
2023-02-07T10:42:57.845Z,102031.03
2023-02-07T10:45:25.303Z,102031.31
2023-02-07T10:47:52.652Z,102023.09
2023-02-07T10:50:29.621Z,102020.94
2023-02-07T10:52:59.468Z,102023.16
2023-02-07T10:55:51.108Z,102017.78
2023-02-07T10:58:24.170Z,102027.16
2023-02-07T11:00:53.015Z,102022.97
2023-02-07T11:03:22.181Z,102027.69
2023-02-07T11:05:58.390Z,102028.88
2023-02-07T11:08:28.683Z,102023.38
2023-02-07T11:10:58.494Z,102015.81
2023-02-07T11:13:29.061Z,102022.72
2023-02-07T11:16:00.652Z,102012.22
2023-02-07T11:18:44.971Z,102018.69
2023-02-07T11:21:28.299Z,102026.25
2023-02-07T11:24:01.640Z,102020.69
2023-02-07T11:26:30.825Z,102011.41
2023-02-07T11:29:07.997Z,102017.31
2023-02-07T11:31:39.043Z,102009.72
2023-02-07T11:34:24.171Z,102006.75
2023-02-07T11:36:51.636Z,102007.41
2023-02-07T11:39:22.896Z,102000.03
2023-02-07T11:41:56.700Z,101990.78
2023-02-07T11:44:31.820Z,101989.84
2023-02-07T11:47:05.350Z,101987.81
2023-02-07T11:49:47.568Z,101997.84
2023-02-07T11:52:15.788Z,101982.19
2023-02-07T11:54:53.331Z,101983.84
2023-02-07T11:57:22.214Z,101979.47
2023-02-07T12:00:06.978Z,101976.06
2023-02-07T12:02:41.152Z,101975.63
2023-02-07T12:05:16.735Z,101981.50
2023-02-07T12:07:48.322Z,101981.19
2023-02-07T12:10:27.283Z,101981.13
2023-02-07T12:13:00.750Z,101971.72
2023-02-07T12:15:33.606Z,101972.19
2023-02-07T12:18:10.796Z,101965.63
2023-02-07T12:20:41.970Z,101966.53
2023-02-07T12:23:40.793Z,101964.25
2023-02-07T12:26:19.860Z,101955.19
2023-02-07T12:29:13.188Z,101962.94
2023-02-07T12:31:54.754Z,101961.88
2023-02-07T12:34:30.608Z,101964.44
2023-02-07T12:37:04.492Z,101958.31
2023-02-07T12:39:39.792Z,101953.31
2023-02-07T12:42:31.933Z,101958.72
2023-02-07T12:45:01.634Z,101950.28
2023-02-07T12:47:45.295Z,101949.25
2023-02-07T12:50:32.753Z,101947.91
2023-02-07T12:53:16.821Z,101943.06
2023-02-07T12:55:56.391Z,101951.03
2023-02-07T12:58:39.935Z,101942.44
2023-02-07T13:01:15.504Z,101952.03
2023-02-07T13:04:06.093Z,101950.94
2023-02-07T13:06:42.090Z,101944.22
2023-02-07T13:09:21.706Z,101933.69
2023-02-07T13:12:00.227Z,101940.75
2023-02-07T13:14:41.977Z,101936.47
2023-02-07T13:17:29.193Z,101940.13
2023-02-07T13:20:06.221Z,101937.31
2023-02-07T13:22:40.086Z,101936.78
2023-02-07T13:25:16.249Z,101942.28
2023-02-07T13:27:44.994Z,101938.53
2023-02-07T13:30:20.792Z,101939.00
2023-02-07T13:32:51.032Z,101937.81
2023-02-07T13:35:23.470Z,101936.78
2023-02-07T13:37:59.252Z,101938.00
2023-02-07T13:40:33.837Z,101933.72
2023-02-07T13:43:07.564Z,101924.88
2023-02-07T13:45:45.705Z,101926.06
2023-02-07T13:48:23.274Z,101933.38
2023-02-07T13:50:59.245Z,101937.19
2023-02-07T13:53:46.370Z,101937.44
2023-02-07T13:56:16.230Z,101930.44
2023-02-07T13:58:54.833Z,101931.00
2023-02-07T14:01:26.153Z,101932.84
2023-02-07T14:04:03.612Z,101937.41
2023-02-07T14:06:34.074Z,101928.69
2023-02-07T14:09:06.232Z,101929.66
2023-02-07T14:11:39.104Z,101929.88
2023-02-07T14:14:14.584Z,101930.28
2023-02-07T14:17:05.846Z,101936.34
2023-02-07T14:19:54.313Z,101930.38
2023-02-07T14:22:27.310Z,101930.78
2023-02-07T14:25:20.275Z,101941.13
2023-02-07T14:28:18.558Z,101943.25
2023-02-07T14:31:11.300Z,101935.59
2023-02-07T14:33:40.260Z,101932.22
2023-02-07T14:36:21.245Z,101931.81
2023-02-07T14:39:22.549Z,101923.56
2023-02-07T14:41:52.193Z,101927.06
2023-02-07T14:44:25.422Z,101920.56
2023-02-07T14:46:58.061Z,101917.63
2023-02-07T14:49:32.889Z,101925.16
2023-02-07T14:52:02.427Z,101914.06
2023-02-07T14:54:41.313Z,101915.53
2023-02-07T14:57:19.913Z,101914.72
2023-02-07T14:59:54.200Z,101915.72
2023-02-07T15:02:43.424Z,101911.69
2023-02-07T15:05:24.163Z,101904.59
2023-02-07T15:08:16.176Z,101903.88
2023-02-07T15:10:51.814Z,101903.22
2023-02-07T15:13:25.302Z,101903.78
2023-02-07T15:15:55.552Z,101901.69
2023-02-07T15:18:27.115Z,101905.56
2023-02-07T15:20:58.895Z,101904.38
2023-02-07T15:23:28.143Z,101907.81
2023-02-07T15:25:55.776Z,101908.00
2023-02-07T15:28:28.192Z,101909.00
2023-02-07T15:30:58.623Z,101911.97
2023-02-07T15:33:29.147Z,101913.97
2023-02-07T15:35:57.875Z,101912.34
2023-02-07T15:41:41.376Z,101911.09
2023-02-07T15:44:31.011Z,101915.66
2023-02-07T15:47:32.298Z,101911.19
2023-02-07T15:50:01.350Z,101922.19
2023-02-07T15:52:33.871Z,101923.72
2023-02-07T15:55:05.025Z,101918.66
2023-02-07T15:57:35.963Z,101917.16
2023-02-07T16:00:07.412Z,101922.75
2023-02-07T16:02:57.948Z,101911.44
2023-02-07T16:05:29.246Z,101920.72
2023-02-07T16:07:59.596Z,101919.94
2023-02-07T16:10:38.730Z,101909.34
2023-02-07T16:13:20.151Z,101909.72
2023-02-07T16:15:55.773Z,101907.31
2023-02-07T16:18:37.310Z,101912.00
2023-02-07T16:21:06.756Z,101906.00
2023-02-07T16:23:36.289Z,101909.78
2023-02-07T16:26:04.273Z,101905.44
2023-02-07T16:28:34.636Z,101907.41
2023-02-07T16:31:02.433Z,101920.88
2023-02-07T16:33:29.817Z,101927.25
2023-02-07T16:36:00.186Z,101930.13
2023-02-07T16:38:27.647Z,101927.75
2023-02-07T16:40:59.767Z,101935.09
2023-02-07T16:43:35.517Z,101933.44
2023-02-07T16:46:10.839Z,101924.66
2023-02-07T16:48:39.471Z,101939.03
2023-02-07T16:51:09.707Z,101940.88
2023-02-07T16:53:37.007Z,101934.78
2023-02-07T16:56:06.205Z,101941.22
2023-02-07T16:58:34.228Z,101947.66
2023-02-07T17:01:04.272Z,101954.91
2023-02-07T17:03:31.778Z,101956.81
2023-02-07T17:05:59.159Z,101953.41
2023-02-07T17:08:29.027Z,101952.75
2023-02-07T17:11:22.902Z,101957.44
2023-02-07T17:14:05.922Z,101961.22
2023-02-07T17:16:33.375Z,101964.09
2023-02-07T17:19:00.825Z,101966.06
2023-02-07T17:21:28.200Z,101969.56
2023-02-07T17:23:57.409Z,101966.81
2023-02-07T17:26:27.405Z,101975.81
2023-02-07T17:28:56.184Z,101979.44
2023-02-07T17:31:24.708Z,101973.31
2023-02-07T17:33:53.524Z,101974.44
2023-02-07T17:36:20.869Z,101972.75
2023-02-07T17:38:51.338Z,101966.63
2023-02-07T17:41:18.760Z,101964.00
2023-02-07T17:43:46.232Z,101960.56
2023-02-07T17:46:18.289Z,101964.44
2023-02-07T17:48:47.778Z,101958.25
2023-02-07T17:51:18.486Z,101957.38
2023-02-07T17:53:46.434Z,101959.28
2023-02-07T17:56:20.495Z,101961.16
2023-02-07T17:58:47.934Z,101959.41
2023-02-07T18:01:16.779Z,101961.34
2023-02-07T18:03:44.184Z,101958.78
2023-02-07T18:06:15.235Z,101959.78
2023-02-07T18:08:43.652Z,101957.22
2023-02-07T18:11:11.636Z,101958.13
2023-02-07T18:13:39.133Z,101956.50
2023-02-07T18:16:07.390Z,101960.16
2023-02-07T18:18:36.124Z,101971.84
2023-02-07T18:21:05.628Z,101962.22
2023-02-07T18:23:35.034Z,101957.97
2023-02-07T18:26:03.329Z,101965.09
2023-02-07T18:28:31.029Z,101958.09
2023-02-07T18:30:58.418Z,101971.56
2023-02-07T18:33:25.868Z,101971.66
2023-02-07T18:36:00.008Z,101967.28
2023-02-07T18:38:28.165Z,101972.63
2023-02-07T18:40:55.617Z,101968.22
2023-02-07T18:43:23.171Z,101973.63
2023-02-07T18:45:50.715Z,101977.31
2023-02-07T18:48:18.188Z,101985.31
2023-02-07T18:50:48.938Z,101989.00
2023-02-07T18:53:21.381Z,101990.06
2023-02-07T18:55:48.793Z,101993.78
2023-02-07T18:58:16.137Z,101983.16
2023-02-07T19:00:43.698Z,101985.94
2023-02-07T19:03:27.057Z,101986.84
2023-02-07T19:05:58.510Z,101983.44
2023-02-07T19:08:28.024Z,101985.19
2023-02-07T19:10:55.969Z,101986.06
2023-02-07T19:13:25.898Z,101986.06
2023-02-07T19:15:53.414Z,101993.31
2023-02-07T19:18:28.034Z,101986.34
2023-02-07T19:20:55.576Z,101977.50
2023-02-07T19:23:29.344Z,101980.09
2023-02-07T19:25:59.877Z,101979.44
2023-02-07T19:28:28.144Z,101981.28
2023-02-07T19:30:58.096Z,101975.13
2023-02-07T19:33:26.141Z,101984.03
2023-02-07T19:35:53.900Z,101983.97
2023-02-07T19:38:23.684Z,101972.44
2023-02-07T19:40:57.609Z,101983.16
2023-02-07T19:43:31.070Z,101988.47
2023-02-07T19:45:58.594Z,101983.22
2023-02-07T19:48:32.480Z,101992.13
2023-02-07T19:51:00.781Z,101983.25
2023-02-07T19:53:29.293Z,101980.66
2023-02-07T19:56:01.069Z,101979.06
2023-02-07T19:58:30.241Z,101972.94
2023-02-07T20:00:58.725Z,101968.59
2023-02-07T20:03:26.752Z,101977.59
2023-02-07T20:05:55.591Z,101978.53
2023-02-07T20:08:23.007Z,101977.63
2023-02-07T20:10:50.515Z,101975.00
2023-02-07T20:13:19.584Z,101975.06
2023-02-07T20:15:49.699Z,101978.59
2023-02-07T20:18:17.026Z,101982.25
2023-02-07T20:20:47.827Z,101980.59
2023-02-07T20:23:16.167Z,101987.75
2023-02-07T20:25:43.728Z,101984.31
2023-02-07T20:28:11.225Z,101982.59
2023-02-07T20:30:44.224Z,101981.72
2023-02-07T20:33:11.749Z,101989.75
2023-02-07T20:35:40.763Z,101979.09
2023-02-07T20:38:08.226Z,101980.94
2023-02-07T20:40:35.456Z,101988.97
2023-02-07T20:43:05.327Z,101983.75
2023-02-07T20:45:33.118Z,101977.56
2023-02-07T20:48:01.888Z,101970.47
2023-02-07T20:50:29.232Z,101972.25
2023-02-07T20:52:56.673Z,101972.25
2023-02-07T20:55:24.037Z,101986.56
2023-02-07T20:57:51.546Z,101982.22
2023-02-07T21:00:19.340Z,101983.97
2023-02-07T21:02:51.719Z,101981.34
2023-02-07T21:05:20.498Z,101980.50
2023-02-07T21:07:47.855Z,101980.44
2023-02-07T21:10:15.278Z,101983.19
2023-02-07T21:12:43.896Z,101984.03
2023-02-07T21:15:13.552Z,101977.94
2023-02-07T21:17:43.003Z,101976.19
2023-02-07T21:20:14.036Z,101976.19
2023-02-07T21:22:46.726Z,101979.69
2023-02-07T21:25:15.344Z,101981.50
2023-02-07T21:27:43.693Z,101983.28
2023-02-07T21:30:12.138Z,101986.06
2023-02-07T21:32:44.004Z,101978.94
2023-02-07T21:35:11.458Z,101980.81
2023-02-07T21:37:39.006Z,101980.81
2023-02-07T21:40:09.798Z,101973.78
2023-02-07T21:42:37.230Z,101960.47
2023-02-07T21:45:05.199Z,101957.81
2023-02-07T21:47:32.464Z,101965.88
2023-02-07T21:49:59.814Z,101964.09
2023-02-07T21:52:28.964Z,101966.00
2023-02-07T21:54:59.078Z,101966.94
2023-02-07T21:57:28.342Z,101971.34
2023-02-07T21:59:55.643Z,101968.78
2023-02-07T22:02:23.554Z,101972.31
2023-02-07T22:04:53.305Z,101975.75
2023-02-07T22:07:20.880Z,101971.34
2023-02-07T22:09:50.346Z,101974.06
2023-02-07T22:12:17.649Z,101964.25
2023-02-07T22:14:46.608Z,101973.16
2023-02-07T22:17:14.178Z,101975.00
2023-02-07T22:19:41.675Z,101967.06
2023-02-07T22:22:11.270Z,101964.44
2023-02-07T22:24:39.303Z,101966.28
2023-02-07T22:27:06.954Z,101966.28
2023-02-07T22:29:35.197Z,101961.03
2023-02-07T22:32:04.388Z,101960.16
2023-02-07T22:34:31.978Z,101961.03
2023-02-07T22:37:02.797Z,101953.97
2023-02-07T22:39:30.974Z,101954.00
2023-02-07T22:41:58.341Z,101960.19
2023-02-07T22:44:28.275Z,101956.66
2023-02-07T22:46:58.299Z,101944.28
2023-02-07T22:49:28.888Z,101945.22
2023-02-07T22:51:56.453Z,101954.94
2023-02-07T22:54:24.026Z,101950.56
2023-02-07T22:56:51.426Z,101952.41
2023-02-07T22:59:19.107Z,101948.03
2023-02-07T23:01:46.668Z,101950.72
2023-02-07T23:04:15.867Z,101941.91
2023-02-07T23:06:44.977Z,101941.88
2023-02-07T23:09:14.117Z,101954.28
2023-02-07T23:11:41.806Z,101945.38
2023-02-07T23:14:13.472Z,101945.44
2023-02-07T23:16:40.878Z,101945.41
2023-02-07T23:19:12.325Z,101949.03
2023-02-07T23:21:41.066Z,101940.16
2023-02-07T23:24:10.599Z,101936.66
2023-02-07T23:26:39.908Z,101942.84
2023-02-07T23:29:07.406Z,101948.16
2023-02-07T23:31:34.873Z,101948.09
2023-02-07T23:34:02.500Z,101953.41
2023-02-07T23:36:30.931Z,101947.28
2023-02-07T23:39:00.280Z,101944.69
2023-02-07T23:41:29.880Z,101944.72
2023-02-07T23:43:59.962Z,101950.09
2023-02-07T23:46:28.099Z,101949.28
2023-02-07T23:48:55.660Z,101943.94
2023-02-07T23:51:23.160Z,101940.41
2023-02-07T23:53:51.008Z,101943.97
2023-02-07T23:56:35.190Z,101938.63
2023-02-07T23:59:02.780Z,101939.50
